sensor_id;sensor_type;location;lat;lon;timestamp;pressure;altitude;pressure_sealevel;temperature;humidity
8653;BME280;4364;52.426;9.424;2022-10-15T00:00:50;100270.66;;;12.97;100.00
8653;BME280;4364;52.426;9.424;2022-10-15T00:03:17;100275.94;;;12.93;100.00
8653;BME280;4364;52.426;9.424;2022-10-15T00:05:43;100272.72;;;12.91;100.00
8653;BME280;4364;52.426;9.424;2022-10-15T00:08:11;100271.06;;;12.90;100.00
8653;BME280;4364;52.426;9.424;2022-10-15T00:10:38;100265.91;;;12.89;100.00
8653;BME280;4364;52.426;9.424;2022-10-15T00:13:05;100270.03;;;12.86;100.00
8653;BME280;4364;52.426;9.424;2022-10-15T00:15:35;100277.13;;;12.87;100.00
8653;BME280;4364;52.426;9.424;2022-10-15T00:18:01;100273.50;;;12.78;100.00
8653;BME280;4364;52.426;9.424;2022-10-15T00:20:28;100268.94;;;12.73;100.00
8653;BME280;4364;52.426;9.424;2022-10-15T00:22:55;100261.38;;;12.70;100.00
8653;BME280;4364;52.426;9.424;2022-10-15T00:25:22;100257.59;;;12.66;100.00
8653;BME280;4364;52.426;9.424;2022-10-15T00:27:48;100251.94;;;12.63;100.00
8653;BME280;4364;52.426;9.424;2022-10-15T00:30:16;100262.97;;;12.57;100.00
8653;BME280;4364;52.426;9.424;2022-10-15T00:32:43;100259.72;;;12.55;100.00
8653;BME280;4364;52.426;9.424;2022-10-15T00:35:09;100259.81;;;12.50;100.00
8653;BME280;4364;52.426;9.424;2022-10-15T00:37:36;100266.97;;;12.46;100.00
8653;BME280;4364;52.426;9.424;2022-10-15T00:40:03;100259.41;;;12.43;100.00
8653;BME280;4364;52.426;9.424;2022-10-15T00:42:31;100265.47;;;12.40;100.00
8653;BME280;4364;52.426;9.424;2022-10-15T00:44:58;100257.06;;;12.36;100.00
8653;BME280;4364;52.426;9.424;2022-10-15T00:47:38;100252.50;;;12.32;100.00
8653;BME280;4364;52.426;9.424;2022-10-15T00:50:10;100265.72;;;12.25;100.00
8653;BME280;4364;52.426;9.424;2022-10-15T00:52:58;100271.03;;;12.16;100.00
8653;BME280;4364;52.426;9.424;2022-10-15T00:55:32;100264.38;;;12.08;100.00
8653;BME280;4364;52.426;9.424;2022-10-15T00:58:03;100263.03;;;12.05;100.00
8653;BME280;4364;52.426;9.424;2022-10-15T01:00:31;100260.59;;;12.04;100.00
8653;BME280;4364;52.426;9.424;2022-10-15T01:02:58;100268.56;;;12.00;100.00
8653;BME280;4364;52.426;9.424;2022-10-15T01:05:27;100264.28;;;11.94;100.00
8653;BME280;4364;52.426;9.424;2022-10-15T01:07:54;100265.75;;;11.86;100.00
8653;BME280;4364;52.426;9.424;2022-10-15T01:10:21;100270.75;;;11.79;100.00
8653;BME280;4364;52.426;9.424;2022-10-15T01:15:43;100269.88;;;11.65;100.00
8653;BME280;4364;52.426;9.424;2022-10-15T01:18:19;100264.81;;;11.58;100.00
8653;BME280;4364;52.426;9.424;2022-10-15T01:24:14;100258.47;;;11.44;100.00
8653;BME280;4364;52.426;9.424;2022-10-15T01:29:57;100258.16;;;11.26;100.00
8653;BME280;4364;52.426;9.424;2022-10-15T01:32:35;100248.94;;;11.22;100.00
8653;BME280;4364;52.426;9.424;2022-10-15T01:38:02;100248.72;;;11.19;100.00
8653;BME280;4364;52.426;9.424;2022-10-15T01:40:38;100248.28;;;11.11;100.00
8653;BME280;4364;52.426;9.424;2022-10-15T01:43:12;100245.34;;;11.08;100.00
8653;BME280;4364;52.426;9.424;2022-10-15T01:46:11;100244.06;;;11.00;100.00
8653;BME280;4364;52.426;9.424;2022-10-15T01:48:46;100260.44;;;10.95;100.00
8653;BME280;4364;52.426;9.424;2022-10-15T01:51:15;100257.50;;;10.91;100.00
8653;BME280;4364;52.426;9.424;2022-10-15T01:53:44;100263.56;;;10.83;100.00
8653;BME280;4364;52.426;9.424;2022-10-15T01:56:15;100257.91;;;10.80;100.00
8653;BME280;4364;52.426;9.424;2022-10-15T01:58:43;100250.03;;;10.78;100.00
8653;BME280;4364;52.426;9.424;2022-10-15T02:01:12;100243.53;;;10.74;100.00
8653;BME280;4364;52.426;9.424;2022-10-15T02:03:49;100253.38;;;10.70;100.00
8653;BME280;4364;52.426;9.424;2022-10-15T02:06:36;100246.59;;;10.67;100.00
8653;BME280;4364;52.426;9.424;2022-10-15T02:09:55;100233.00;;;10.67;100.00
8653;BME280;4364;52.426;9.424;2022-10-15T02:12:57;100235.19;;;10.65;100.00
8653;BME280;4364;52.426;9.424;2022-10-15T02:18:01;100233.59;;;10.64;100.00
8653;BME280;4364;52.426;9.424;2022-10-15T02:20:43;100238.25;;;10.59;100.00
8653;BME280;4364;52.426;9.424;2022-10-15T02:23:16;100247.81;;;10.56;100.00
8653;BME280;4364;52.426;9.424;2022-10-15T02:25:45;100241.84;;;10.54;100.00
8653;BME280;4364;52.426;9.424;2022-10-15T02:28:14;100236.94;;;10.56;100.00
8653;BME280;4364;52.426;9.424;2022-10-15T02:30:44;100227.72;;;10.52;100.00
8653;BME280;4364;52.426;9.424;2022-10-15T02:33:13;100223.97;;;10.48;100.00
8653;BME280;4364;52.426;9.424;2022-10-15T02:35:42;100219.13;;;10.45;100.00
8653;BME280;4364;52.426;9.424;2022-10-15T02:38:12;100223.22;;;10.42;100.00
8653;BME280;4364;52.426;9.424;2022-10-15T02:40:42;100215.31;;;10.46;100.00
8653;BME280;4364;52.426;9.424;2022-10-15T02:43:12;100222.88;;;10.49;100.00
8653;BME280;4364;52.426;9.424;2022-10-15T02:45:39;100219.56;;;10.52;100.00
8653;BME280;4364;52.426;9.424;2022-10-15T02:48:07;100224.44;;;10.55;100.00
8653;BME280;4364;52.426;9.424;2022-10-15T02:50:33;100220.16;;;10.49;100.00
8653;BME280;4364;52.426;9.424;2022-10-15T02:53:00;100227.50;;;10.48;100.00
8653;BME280;4364;52.426;9.424;2022-10-15T02:55:27;100226.75;;;10.43;100.00
8653;BME280;4364;52.426;9.424;2022-10-15T02:57:54;100233.00;;;10.43;100.00
8653;BME280;4364;52.426;9.424;2022-10-15T03:00:21;100231.03;;;10.49;100.00
8653;BME280;4364;52.426;9.424;2022-10-15T03:02:48;100233.63;;;10.59;100.00
8653;BME280;4364;52.426;9.424;2022-10-15T03:05:17;100230.56;;;10.66;100.00
8653;BME280;4364;52.426;9.424;2022-10-15T03:07:43;100229.94;;;10.74;100.00
8653;BME280;4364;52.426;9.424;2022-10-15T03:10:10;100222.59;;;10.74;100.00
8653;BME280;4364;52.426;9.424;2022-10-15T03:12:37;100219.88;;;10.74;100.00
8653;BME280;4364;52.426;9.424;2022-10-15T03:15:05;100216.59;;;10.78;100.00
8653;BME280;4364;52.426;9.424;2022-10-15T03:17:32;100221.19;;;10.77;100.00
8653;BME280;4364;52.426;9.424;2022-10-15T03:19:59;100219.31;;;10.78;100.00
8653;BME280;4364;52.426;9.424;2022-10-15T03:22:26;100225.56;;;10.78;100.00
8653;BME280;4364;52.426;9.424;2022-10-15T03:24:52;100207.81;;;10.81;100.00
8653;BME280;4364;52.426;9.424;2022-10-15T03:27:25;100225.25;;;10.80;100.00
8653;BME280;4364;52.426;9.424;2022-10-15T03:29:52;100218.53;;;10.72;100.00
8653;BME280;4364;52.426;9.424;2022-10-15T03:32:20;100227.63;;;10.62;100.00
8653;BME280;4364;52.426;9.424;2022-10-15T03:34:47;100230.41;;;10.57;100.00
8653;BME280;4364;52.426;9.424;2022-10-15T03:37:16;100227.78;;;10.47;100.00
8653;BME280;4364;52.426;9.424;2022-10-15T03:39:43;100223.75;;;10.44;100.00
8653;BME280;4364;52.426;9.424;2022-10-15T03:42:10;100232.19;;;10.43;100.00
8653;BME280;4364;52.426;9.424;2022-10-15T03:44:43;100218.66;;;10.37;100.00
8653;BME280;4364;52.426;9.424;2022-10-15T03:47:13;100219.47;;;10.38;100.00
8653;BME280;4364;52.426;9.424;2022-10-15T03:49:45;100216.22;;;10.36;100.00
8653;BME280;4364;52.426;9.424;2022-10-15T03:52:12;100211.91;;;10.30;100.00
8653;BME280;4364;52.426;9.424;2022-10-15T03:54:40;100213.84;;;10.24;100.00
8653;BME280;4364;52.426;9.424;2022-10-15T03:57:08;100220.44;;;10.18;100.00
8653;BME280;4364;52.426;9.424;2022-10-15T03:59:41;100216.97;;;10.12;100.00
8653;BME280;4364;52.426;9.424;2022-10-15T04:02:14;100225.69;;;10.09;100.00
8653;BME280;4364;52.426;9.424;2022-10-15T04:04:41;100225.91;;;10.13;100.00
8653;BME280;4364;52.426;9.424;2022-10-15T04:07:08;100222.63;;;10.16;100.00
8653;BME280;4364;52.426;9.424;2022-10-15T04:09:35;100231.00;;;10.19;100.00
8653;BME280;4364;52.426;9.424;2022-10-15T04:12:20;100228.59;;;10.18;100.00
8653;BME280;4364;52.426;9.424;2022-10-15T04:14:47;100227.72;;;10.23;100.00
8653;BME280;4364;52.426;9.424;2022-10-15T04:17:14;100233.97;;;10.23;100.00
8653;BME280;4364;52.426;9.424;2022-10-15T04:19:43;100222.28;;;10.23;100.00
8653;BME280;4364;52.426;9.424;2022-10-15T04:22:12;100228.47;;;10.28;100.00
8653;BME280;4364;52.426;9.424;2022-10-15T04:24:44;100227.69;;;10.28;100.00
8653;BME280;4364;52.426;9.424;2022-10-15T04:27:16;100226.56;;;10.29;100.00
8653;BME280;4364;52.426;9.424;2022-10-15T04:29:43;100226.84;;;10.27;100.00
8653;BME280;4364;52.426;9.424;2022-10-15T04:32:13;100241.28;;;10.28;100.00
8653;BME280;4364;52.426;9.424;2022-10-15T04:34:41;100231.19;;;10.28;100.00
8653;BME280;4364;52.426;9.424;2022-10-15T04:37:08;100231.72;;;10.30;100.00
8653;BME280;4364;52.426;9.424;2022-10-15T04:39:36;100229.84;;;10.31;100.00
8653;BME280;4364;52.426;9.424;2022-10-15T04:42:03;100237.72;;;10.27;100.00
8653;BME280;4364;52.426;9.424;2022-10-15T04:44:31;100232.84;;;10.29;100.00
8653;BME280;4364;52.426;9.424;2022-10-15T04:46:58;100234.72;;;10.29;100.00
8653;BME280;4364;52.426;9.424;2022-10-15T04:49:40;100236.63;;;10.28;100.00
8653;BME280;4364;52.426;9.424;2022-10-15T04:52:26;100236.22;;;10.16;100.00
8653;BME280;4364;52.426;9.424;2022-10-15T04:54:55;100239.50;;;10.13;100.00
8653;BME280;4364;52.426;9.424;2022-10-15T04:57:24;100237.88;;;10.12;100.00
8653;BME280;4364;52.426;9.424;2022-10-15T04:59:53;100247.94;;;10.11;100.00
8653;BME280;4364;52.426;9.424;2022-10-15T05:02:32;100241.16;;;10.09;100.00
8653;BME280;4364;52.426;9.424;2022-10-15T05:05:25;100241.16;;;10.09;100.00
8653;BME280;4364;52.426;9.424;2022-10-15T05:08:03;100236.53;;;10.09;100.00
8653;BME280;4364;52.426;9.424;2022-10-15T05:10:50;100232.44;;;10.12;100.00
8653;BME280;4364;52.426;9.424;2022-10-15T05:13:17;100234.16;;;10.02;100.00
8653;BME280;4364;52.426;9.424;2022-10-15T05:15:44;100234.19;;;9.97;100.00
8653;BME280;4364;52.426;9.424;2022-10-15T05:18:11;100238.00;;;9.96;100.00
8653;BME280;4364;52.426;9.424;2022-10-15T05:20:47;100228.81;;;9.92;100.00
8653;BME280;4364;52.426;9.424;2022-10-15T05:23:17;100229.13;;;9.86;100.00
8653;BME280;4364;52.426;9.424;2022-10-15T05:25:52;100235.66;;;9.85;100.00
8653;BME280;4364;52.426;9.424;2022-10-15T05:28:22;100222.38;;;9.78;100.00
8653;BME280;4364;52.426;9.424;2022-10-15T05:30:49;100237.59;;;9.79;100.00
8653;BME280;4364;52.426;9.424;2022-10-15T05:33:15;100231.38;;;9.73;100.00
8653;BME280;4364;52.426;9.424;2022-10-15T05:35:42;100229.50;;;9.69;100.00
8653;BME280;4364;52.426;9.424;2022-10-15T05:38:09;100240.94;;;9.66;100.00
8653;BME280;4364;52.426;9.424;2022-10-15T05:40:38;100239.59;;;9.63;100.00
8653;BME280;4364;52.426;9.424;2022-10-15T05:43:09;100245.03;;;9.63;100.00
8653;BME280;4364;52.426;9.424;2022-10-15T05:45:36;100245.34;;;9.56;100.00
8653;BME280;4364;52.426;9.424;2022-10-15T05:48:05;100256.22;;;9.51;100.00
8653;BME280;4364;52.426;9.424;2022-10-15T05:50:33;100267.63;;;9.48;100.00
8653;BME280;4364;52.426;9.424;2022-10-15T05:53:01;100261.97;;;9.44;100.00
8653;BME280;4364;52.426;9.424;2022-10-15T05:55:43;100261.44;;;9.42;100.00
8653;BME280;4364;52.426;9.424;2022-10-15T05:58:10;100263.28;;;9.47;100.00
8653;BME280;4364;52.426;9.424;2022-10-15T06:00:36;100258.41;;;9.49;100.00
8653;BME280;4364;52.426;9.424;2022-10-15T06:03:05;100254.06;;;9.48;100.00
8653;BME280;4364;52.426;9.424;2022-10-15T06:05:31;100259.75;;;9.52;100.00
8653;BME280;4364;52.426;9.424;2022-10-15T06:07:58;100253.47;;;9.56;100.00
8653;BME280;4364;52.426;9.424;2022-10-15T06:10:24;100243.97;;;9.59;100.00
8653;BME280;4364;52.426;9.424;2022-10-15T06:12:53;100245.06;;;9.58;100.00
8653;BME280;4364;52.426;9.424;2022-10-15T06:15:20;100248.53;;;9.63;100.00
8653;BME280;4364;52.426;9.424;2022-10-15T06:17:51;100253.41;;;9.67;100.00
8653;BME280;4364;52.426;9.424;2022-10-15T06:20:19;100250.94;;;9.70;100.00
8653;BME280;4364;52.426;9.424;2022-10-15T06:22:45;100255.25;;;9.76;100.00
8653;BME280;4364;52.426;9.424;2022-10-15T06:25:12;100256.59;;;9.79;100.00
8653;BME280;4364;52.426;9.424;2022-10-15T06:27:39;100258.44;;;9.83;100.00
8653;BME280;4364;52.426;9.424;2022-10-15T06:30:07;100257.63;;;9.88;100.00
8653;BME280;4364;52.426;9.424;2022-10-15T06:32:34;100267.91;;;9.91;100.00
8653;BME280;4364;52.426;9.424;2022-10-15T06:35:00;100273.31;;;9.96;100.00
8653;BME280;4364;52.426;9.424;2022-10-15T06:37:28;100278.41;;;10.03;100.00
8653;BME280;4364;52.426;9.424;2022-10-15T06:39:57;100274.84;;;10.08;100.00
8653;BME280;4364;52.426;9.424;2022-10-15T06:42:23;100277.25;;;10.14;100.00
8653;BME280;4364;52.426;9.424;2022-10-15T06:44:53;100278.28;;;10.18;100.00
8653;BME280;4364;52.426;9.424;2022-10-15T06:47:20;100282.88;;;10.23;100.00
8653;BME280;4364;52.426;9.424;2022-10-15T06:49:48;100277.41;;;10.28;100.00
8653;BME280;4364;52.426;9.424;2022-10-15T06:52:15;100281.69;;;10.40;100.00
8653;BME280;4364;52.426;9.424;2022-10-15T06:54:41;100276.19;;;10.45;100.00
8653;BME280;4364;52.426;9.424;2022-10-15T06:57:09;100285.34;;;10.54;100.00
8653;BME280;4364;52.426;9.424;2022-10-15T06:59:35;100290.72;;;10.59;100.00
8653;BME280;4364;52.426;9.424;2022-10-15T07:02:08;100300.75;;;10.64;100.00
8653;BME280;4364;52.426;9.424;2022-10-15T07:04:35;100304.75;;;10.71;100.00
8653;BME280;4364;52.426;9.424;2022-10-15T07:07:01;100302.75;;;10.82;100.00
8653;BME280;4364;52.426;9.424;2022-10-15T07:09:28;100308.94;;;10.88;100.00
8653;BME280;4364;52.426;9.424;2022-10-15T07:11:55;100309.97;;;10.92;100.00
8653;BME280;4364;52.426;9.424;2022-10-15T07:14:21;100314.78;;;11.00;100.00
8653;BME280;4364;52.426;9.424;2022-10-15T07:16:48;100313.13;;;11.04;100.00
8653;BME280;4364;52.426;9.424;2022-10-15T07:19:14;100306.50;;;11.10;100.00
8653;BME280;4364;52.426;9.424;2022-10-15T07:21:41;100317.91;;;11.12;100.00
8653;BME280;4364;52.426;9.424;2022-10-15T07:24:09;100317.56;;;11.19;100.00
8653;BME280;4364;52.426;9.424;2022-10-15T07:26:36;100321.03;;;11.25;100.00
8653;BME280;4364;52.426;9.424;2022-10-15T07:29:03;100313.34;;;11.32;100.00
8653;BME280;4364;52.426;9.424;2022-10-15T07:31:30;100313.25;;;11.37;100.00
8653;BME280;4364;52.426;9.424;2022-10-15T07:33:56;100305.88;;;11.43;100.00
8653;BME280;4364;52.426;9.424;2022-10-15T07:36:24;100308.81;;;11.46;100.00
8653;BME280;4364;52.426;9.424;2022-10-15T07:38:51;100305.78;;;11.48;100.00
8653;BME280;4364;52.426;9.424;2022-10-15T07:41:18;100303.66;;;11.45;100.00
8653;BME280;4364;52.426;9.424;2022-10-15T07:43:44;100308.28;;;11.44;100.00
8653;BME280;4364;52.426;9.424;2022-10-15T07:46:11;100310.69;;;11.46;100.00
8653;BME280;4364;52.426;9.424;2022-10-15T07:48:37;100304.38;;;11.50;100.00
8653;BME280;4364;52.426;9.424;2022-10-15T07:51:05;100307.03;;;11.56;100.00
8653;BME280;4364;52.426;9.424;2022-10-15T07:53:33;100301.22;;;11.62;100.00
8653;BME280;4364;52.426;9.424;2022-10-15T07:56:02;100292.41;;;11.71;100.00
8653;BME280;4364;52.426;9.424;2022-10-15T07:58:31;100298.53;;;11.81;100.00
8653;BME280;4364;52.426;9.424;2022-10-15T08:01:07;100302.19;;;11.91;100.00
8653;BME280;4364;52.426;9.424;2022-10-15T08:03:34;100303.78;;;11.97;100.00
8653;BME280;4364;52.426;9.424;2022-10-15T08:06:03;100296.84;;;12.04;100.00
8653;BME280;4364;52.426;9.424;2022-10-15T08:08:32;100298.66;;;12.09;100.00
8653;BME280;4364;52.426;9.424;2022-10-15T08:11:10;100302.44;;;12.13;100.00
8653;BME280;4364;52.426;9.424;2022-10-15T08:13:37;100303.66;;;12.21;100.00
8653;BME280;4364;52.426;9.424;2022-10-15T08:16:11;100314.72;;;12.30;100.00
8653;BME280;4364;52.426;9.424;2022-10-15T08:18:38;100310.78;;;12.36;100.00
8653;BME280;4364;52.426;9.424;2022-10-15T08:21:06;100303.34;;;12.41;100.00
8653;BME280;4364;52.426;9.424;2022-10-15T08:23:34;100309.72;;;12.51;100.00
8653;BME280;4364;52.426;9.424;2022-10-15T08:26:01;100302.78;;;12.58;100.00
8653;BME280;4364;52.426;9.424;2022-10-15T08:28:29;100302.88;;;12.67;100.00
8653;BME280;4364;52.426;9.424;2022-10-15T08:30:57;100308.16;;;12.77;100.00
8653;BME280;4364;52.426;9.424;2022-10-15T08:33:31;100303.91;;;12.85;100.00
8653;BME280;4364;52.426;9.424;2022-10-15T08:35:57;100293.22;;;12.89;100.00
8653;BME280;4364;52.426;9.424;2022-10-15T08:38:24;100297.25;;;12.91;100.00
8653;BME280;4364;52.426;9.424;2022-10-15T08:40:52;100302.31;;;12.98;100.00
8653;BME280;4364;52.426;9.424;2022-10-15T08:43:35;100312.50;;;13.06;100.00
8653;BME280;4364;52.426;9.424;2022-10-15T08:46:08;100311.81;;;13.14;100.00
8653;BME280;4364;52.426;9.424;2022-10-15T08:48:48;100312.94;;;13.13;100.00
8653;BME280;4364;52.426;9.424;2022-10-15T08:51:18;100310.00;;;13.24;100.00
8653;BME280;4364;52.426;9.424;2022-10-15T08:53:51;100313.34;;;13.34;100.00
8653;BME280;4364;52.426;9.424;2022-10-15T08:56:33;100312.81;;;13.46;100.00
8653;BME280;4364;52.426;9.424;2022-10-15T08:59:16;100316.34;;;13.61;100.00
8653;BME280;4364;52.426;9.424;2022-10-15T09:01:59;100310.66;;;13.71;100.00
8653;BME280;4364;52.426;9.424;2022-10-15T09:04:48;100310.13;;;13.83;100.00
8653;BME280;4364;52.426;9.424;2022-10-15T09:07:30;100306.03;;;13.94;100.00
8653;BME280;4364;52.426;9.424;2022-10-15T09:10:15;100313.00;;;14.00;100.00
8653;BME280;4364;52.426;9.424;2022-10-15T09:13:03;100314.28;;;14.17;100.00
8653;BME280;4364;52.426;9.424;2022-10-15T09:15:36;100318.56;;;14.32;100.00
8653;BME280;4364;52.426;9.424;2022-10-15T09:18:13;100316.94;;;14.31;99.95
8653;BME280;4364;52.426;9.424;2022-10-15T09:20:42;100313.16;;;14.40;99.58
8653;BME280;4364;52.426;9.424;2022-10-15T09:23:17;100313.19;;;14.49;98.93
8653;BME280;4364;52.426;9.424;2022-10-15T09:25:48;100317.25;;;14.52;97.29
8653;BME280;4364;52.426;9.424;2022-10-15T09:28:18;100318.44;;;14.59;97.01
8653;BME280;4364;52.426;9.424;2022-10-15T09:30:51;100317.41;;;14.55;96.17
8653;BME280;4364;52.426;9.424;2022-10-15T09:33:40;100314.75;;;14.64;97.01
8653;BME280;4364;52.426;9.424;2022-10-15T09:44:35;100304.25;;;14.89;94.50
8653;BME280;4364;52.426;9.424;2022-10-15T09:47:31;100300.22;;;14.86;92.01
8653;BME280;4364;52.426;9.424;2022-10-15T09:50:02;100302.13;;;14.77;91.43
8653;BME280;4364;52.426;9.424;2022-10-15T09:56:29;100302.56;;;14.70;90.46
8653;BME280;4364;52.426;9.424;2022-10-15T09:58:29;100306.63;;;14.81;90.63
8653;BME280;4364;52.426;9.424;2022-10-15T10:01:04;100305.06;;;14.89;89.55
8653;BME280;4364;52.426;9.424;2022-10-15T10:03:35;100308.16;;;14.96;89.56
8653;BME280;4364;52.426;9.424;2022-10-15T10:06:10;100303.22;;;15.07;88.76
8653;BME280;4364;52.426;9.424;2022-10-15T10:08:52;100306.31;;;15.23;87.52
8653;BME280;4364;52.426;9.424;2022-10-15T10:11:22;100304.88;;;15.26;85.04
8653;BME280;4364;52.426;9.424;2022-10-15T10:13:57;100294.88;;;15.30;84.59
8653;BME280;4364;52.426;9.424;2022-10-15T10:16:25;100302.47;;;15.42;84.52
8653;BME280;4364;52.426;9.424;2022-10-15T10:19:14;100302.16;;;15.43;83.64
8653;BME280;4364;52.426;9.424;2022-10-15T10:21:41;100304.91;;;15.43;81.08
8653;BME280;4364;52.426;9.424;2022-10-15T10:24:24;100305.72;;;15.44;81.08
8653;BME280;4364;52.426;9.424;2022-10-15T10:26:51;100306.69;;;15.48;80.77
8653;BME280;4364;52.426;9.424;2022-10-15T10:29:19;100306.38;;;15.67;79.58
8653;BME280;4364;52.426;9.424;2022-10-15T10:32:25;100296.72;;;15.69;80.75
8653;BME280;4364;52.426;9.424;2022-10-15T10:34:53;100300.50;;;15.82;81.11
8653;BME280;4364;52.426;9.424;2022-10-15T10:37:21;100287.41;;;15.88;80.56
8653;BME280;4364;52.426;9.424;2022-10-15T10:39:57;100287.25;;;16.02;79.80
8653;BME280;4364;52.426;9.424;2022-10-15T10:42:34;100286.44;;;16.10;79.75
8653;BME280;4364;52.426;9.424;2022-10-15T10:45:15;100292.56;;;16.16;80.14
8653;BME280;4364;52.426;9.424;2022-10-15T10:47:44;100293.00;;;16.35;80.01
8653;BME280;4364;52.426;9.424;2022-10-15T10:50:32;100289.78;;;16.51;78.44
8653;BME280;4364;52.426;9.424;2022-10-15T10:53:15;100290.53;;;16.60;76.78
8653;BME280;4364;52.426;9.424;2022-10-15T10:55:45;100286.97;;;16.68;75.24
8653;BME280;4364;52.426;9.424;2022-10-15T10:58:20;100286.16;;;16.67;74.04
8653;BME280;4364;52.426;9.424;2022-10-15T11:00:52;100284.75;;;16.53;74.80
8653;BME280;4364;52.426;9.424;2022-10-15T11:03:37;100279.78;;;16.46;74.83
8653;BME280;4364;52.426;9.424;2022-10-15T11:06:29;100284.25;;;16.59;75.53
8653;BME280;4364;52.426;9.424;2022-10-15T11:12:09;100280.13;;;16.83;74.38
8653;BME280;4364;52.426;9.424;2022-10-15T11:15:26;100278.00;;;16.97;75.48
8653;BME280;4364;52.426;9.424;2022-10-15T11:18:23;100277.31;;;17.00;73.35
8653;BME280;4364;52.426;9.424;2022-10-15T11:30:00;100265.59;;;16.82;72.74
8653;BME280;4364;52.426;9.424;2022-10-15T11:41:11;100254.25;;;16.54;74.79
8653;BME280;4364;52.426;9.424;2022-10-15T11:49:47;100247.78;;;16.50;75.63
8653;BME280;4364;52.426;9.424;2022-10-15T11:55:11;100246.81;;;16.55;74.92
8653;BME280;4364;52.426;9.424;2022-10-15T11:57:39;100233.41;;;16.53;75.55
8653;BME280;4364;52.426;9.424;2022-10-15T12:00:21;100230.94;;;16.60;75.55
8653;BME280;4364;52.426;9.424;2022-10-15T12:02:53;100231.56;;;16.75;75.58
8653;BME280;4364;52.426;9.424;2022-10-15T12:05:27;100226.19;;;16.87;75.01
8653;BME280;4364;52.426;9.424;2022-10-15T12:07:57;100224.09;;;16.84;74.77
8653;BME280;4364;52.426;9.424;2022-10-15T12:13:53;100217.66;;;17.10;73.12
8653;BME280;4364;52.426;9.424;2022-10-15T12:19:11;100206.09;;;17.25;71.71
8653;BME280;4364;52.426;9.424;2022-10-15T12:21:43;100203.56;;;17.41;70.52
8653;BME280;4364;52.426;9.424;2022-10-15T12:27:20;100183.84;;;17.60;69.06
8653;BME280;4364;52.426;9.424;2022-10-15T12:32:34;100193.28;;;17.71;68.86
8653;BME280;4364;52.426;9.424;2022-10-15T12:35:04;100191.41;;;17.84;68.40
8653;BME280;4364;52.426;9.424;2022-10-15T12:37:33;100177.38;;;17.98;68.63
8653;BME280;4364;52.426;9.424;2022-10-15T12:40:05;100181.81;;;17.90;68.49
8653;BME280;4364;52.426;9.424;2022-10-15T12:42:43;100174.41;;;18.03;69.11
8653;BME280;4364;52.426;9.424;2022-10-15T12:45:21;100171.44;;;18.21;67.44
8653;BME280;4364;52.426;9.424;2022-10-15T12:47:48;100170.44;;;18.25;67.36
8653;BME280;4364;52.426;9.424;2022-10-15T12:50:26;100170.56;;;18.41;67.20
8653;BME280;4364;52.426;9.424;2022-10-15T12:56:47;100158.84;;;18.32;65.70
8653;BME280;4364;52.426;9.424;2022-10-15T12:58:54;100159.41;;;18.25;66.84
8653;BME280;4364;52.426;9.424;2022-10-15T13:11:47;100154.13;;;18.08;67.68
8653;BME280;4364;52.426;9.424;2022-10-15T13:14:32;100150.19;;;17.96;68.43
8653;BME280;4364;52.426;9.424;2022-10-15T13:17:13;100151.59;;;18.03;68.35
8653;BME280;4364;52.426;9.424;2022-10-15T13:19:46;100147.34;;;18.05;68.25
8653;BME280;4364;52.426;9.424;2022-10-15T13:22:23;100142.16;;;17.91;68.45
8653;BME280;4364;52.426;9.424;2022-10-15T13:24:50;100136.47;;;17.75;69.24
8653;BME280;4364;52.426;9.424;2022-10-15T13:27:34;100135.88;;;17.70;70.05
8653;BME280;4364;52.426;9.424;2022-10-15T13:30:11;100141.59;;;17.65;70.01
8653;BME280;4364;52.426;9.424;2022-10-15T13:35:30;100130.25;;;17.66;70.88
8653;BME280;4364;52.426;9.424;2022-10-15T13:37:58;100141.38;;;17.70;69.92
8653;BME280;4364;52.426;9.424;2022-10-15T13:40:27;100137.34;;;17.67;69.38
8653;BME280;4364;52.426;9.424;2022-10-15T13:43:17;100125.31;;;17.59;70.25
8653;BME280;4364;52.426;9.424;2022-10-15T13:45:46;100127.53;;;17.45;71.28
8653;BME280;4364;52.426;9.424;2022-10-15T13:48:18;100123.19;;;17.44;71.48
8653;BME280;4364;52.426;9.424;2022-10-15T13:50:50;100123.53;;;17.43;71.71
8653;BME280;4364;52.426;9.424;2022-10-15T13:55:51;100123.13;;;17.32;72.38
8653;BME280;4364;52.426;9.424;2022-10-15T13:58:27;100113.63;;;17.29;73.43
8653;BME280;4364;52.426;9.424;2022-10-15T14:01:06;100115.34;;;17.34;73.37
8653;BME280;4364;52.426;9.424;2022-10-15T14:03:35;100104.63;;;17.41;73.01
8653;BME280;4364;52.426;9.424;2022-10-15T14:08:46;100105.34;;;17.50;72.39
8653;BME280;4364;52.426;9.424;2022-10-15T14:11:14;100103.59;;;17.46;72.70
8653;BME280;4364;52.426;9.424;2022-10-15T14:13:47;100105.09;;;17.43;73.14
8653;BME280;4364;52.426;9.424;2022-10-15T14:18:47;100096.28;;;17.50;70.86
8653;BME280;4364;52.426;9.424;2022-10-15T14:21:18;100094.13;;;17.55;70.79
8653;BME280;4364;52.426;9.424;2022-10-15T14:23:46;100097.91;;;17.51;71.17
8653;BME280;4364;52.426;9.424;2022-10-15T14:26:14;100112.56;;;17.55;70.87
8653;BME280;4364;52.426;9.424;2022-10-15T14:28:47;100112.44;;;17.51;71.22
8653;BME280;4364;52.426;9.424;2022-10-15T14:31:36;100112.88;;;17.41;72.18
8653;BME280;4364;52.426;9.424;2022-10-15T14:37:01;100122.03;;;17.45;71.79
8653;BME280;4364;52.426;9.424;2022-10-15T14:39:31;100122.50;;;17.47;71.64
8653;BME280;4364;52.426;9.424;2022-10-15T14:42:03;100115.88;;;17.27;72.43
8653;BME280;4364;52.426;9.424;2022-10-15T14:44:46;100119.31;;;17.24;73.14
8653;BME280;4364;52.426;9.424;2022-10-15T14:47:21;100120.31;;;17.19;73.82
8653;BME280;4364;52.426;9.424;2022-10-15T14:49:55;100125.41;;;17.30;73.26
8653;BME280;4364;52.426;9.424;2022-10-15T14:52:26;100124.47;;;17.26;73.60
8653;BME280;4364;52.426;9.424;2022-10-15T14:55:13;100132.66;;;17.13;75.14
8653;BME280;4364;52.426;9.424;2022-10-15T14:57:43;100138.47;;;17.12;75.52
8653;BME280;4364;52.426;9.424;2022-10-15T15:00:21;100147.78;;;16.98;77.80
8653;BME280;4364;52.426;9.424;2022-10-15T15:02:51;100141.22;;;16.91;79.18
8653;BME280;4364;52.426;9.424;2022-10-15T15:05:21;100134.78;;;16.87;80.58